Главная страница
METAR-TAF:

METAR-TAF

Аэропорты :

Окленд, Новая Зеландия

широта: 37-01S, долгота: 174-48E, высота над уровнем моря: 7 м

Текущие метеонаблюдения

Эта сводка был подготовлена 41 минут назад, в 23:30 UTC
Ветер 10 Узел от юго-западный
Температура 19°C
Влажность 60%
Давление 1022 hPa
Видимость 10 км и более

METAR: NZAA 122330Z AUTO 22010KT 9999 FEW035/// 19/11 Q1022 NOSIG

Время: 13:11 (00:11 UTC)

Прогноз

Эта сводка был подготовлена 46 минут назад, в 23:25 UTC
Прогноз действительный с 13-го 00 UTC до 14-го 00 UTC
Ветер 12 Узел от юго-западный
Видимость 10 км и более
Отдельные облака на высоте 3000 фута
изменения
С 13-го 07 UTC до 13-го 09 UTC
Ветер 2 Узел переменных направлений
С 13-го 2100 UTC
Ветер 10 Узел от восточно-северо-восточный
Видимость 10 км и более
Рассеянная облачность на высоте 2500 фута
небольшие ливневые дожди

TAF: NZAA 122325Z 1300/1400 22012KT 9999 SCT030 BECMG 1307/1309 VRB02KT FM132100 06010KT 9999 -SHRA BKN025

Метеонаблюдения и прогнозы для более 4000 аэропортов (сводки METAR и TAF).

Имеющиеся станции представлены на карте желтыми и красными точками.

Чтобы увидеть название станции, наведите на нее мышь.

Затем щелкните, чтобы увидеть метеонаблюдения и метеопрогнозы.

Управление картой: чтобы увеличить масштаб, щелкните зеленые кнопки с черным крестиком; чтобы уменьшить масштаб, щелкните зеленую кнопку с тире; для просмотра соседних карт щелкайте зеленые стрелки.


METAR-TAF: